Klubbmästerskap Stockholms FK 2007

Lördagen den 15 september var det klubbmästerskap i navigationsflygning. I tävlingen deltog ett antal klubbmedlemmar med klubbens två Cessna 150, SE-ETO samt SE-GKC. Utöver dessa startade Henry Lindholm från Barkarby med sin egen Cessna 150, SE-FMO och Mats Wallén från Skå-Edeby i en gul Cub.

Hur går då denna tävling till?

Klubbmästerskapet är uppdelat i 2 delar och denna lördag var det navigeringsflygningen som ägde rum. Den andra delen innefattar landningstävling och kommer att äga rum senare i september.

Erling Lindholm och Henry Lidman som tävlingsledare

Henry Lidman och Erling Lindholm var tävlingsledning och sekretariat för tävlingen. Vinden denna dag var ganska kraftig, men den låg ganska rakt i banan på Bromma, så tävlingen gick att genomföra.

TAF
ESSB 151130Z 151216 29015G25KT 9999 SCT042 BKN050=
METAR
ESSB 151350Z 28021KT CAVOK 15/04 Q0998=

Nästa sida
Senast ändrad lör, 2008-11-01 14:36